createdAt,value
2023-02-08T00:01:54.700Z,102761.87
2023-02-08T00:04:26.026Z,102766.25
2023-02-08T00:06:54.430Z,102765.41
2023-02-08T00:09:25.511Z,102765.41
2023-02-08T00:11:55.363Z,102763.62
2023-02-08T00:14:28.452Z,102729.62
2023-02-08T00:16:56.500Z,102756.81
2023-02-08T00:19:26.509Z,102704.97
2023-02-08T00:21:54.709Z,102764.50
2023-02-08T00:24:23.416Z,102768.84
2023-02-08T00:27:02.900Z,102747.53
2023-02-08T00:29:31.769Z,102664.03
2023-02-08T00:32:06.399Z,102767.19
2023-02-08T00:34:38.903Z,102771.41
2023-02-08T00:37:13.034Z,102762.97
2023-02-08T00:39:43.871Z,102743.66
2023-02-08T00:42:15.258Z,102786.37
2023-02-08T00:44:46.146Z,102769.34
2023-02-08T00:47:20.467Z,102769.41
2023-02-08T00:49:51.177Z,102684.81
2023-02-08T00:52:22.310Z,102761.50
2023-02-08T00:54:54.664Z,102633.00
2023-02-08T00:57:24.154Z,102782.16
2023-02-08T00:59:56.543Z,102789.91
2023-02-08T01:02:28.110Z,102782.84
2023-02-08T01:04:59.750Z,102737.00
2023-02-08T01:07:30.662Z,102785.44
2023-02-08T01:10:07.446Z,102773.38
2023-02-08T01:12:39.889Z,102788.50
2023-02-08T01:15:13.203Z,102755.69
2023-02-08T01:17:41.929Z,102783.66
2023-02-08T01:20:15.638Z,102785.81
2023-02-08T01:22:47.230Z,102787.59
2023-02-08T01:25:18.494Z,102720.38
2023-02-08T01:27:50.090Z,102786.91
2023-02-08T01:30:18.547Z,102780.31
2023-02-08T01:32:48.428Z,102728.63
2023-02-08T01:35:19.072Z,102775.97
2023-02-08T01:37:48.471Z,102778.50
2023-02-08T01:40:22.789Z,102671.56
2023-02-08T01:42:55.266Z,102786.69
2023-02-08T01:45:30.105Z,102750.44
2023-02-08T01:48:07.039Z,102765.59
2023-02-08T01:51:01.007Z,102780.44
2023-02-08T01:53:32.411Z,102794.38
2023-02-08T01:56:15.249Z,102798.09
2023-02-08T01:58:57.074Z,102783.13
2023-02-08T02:01:31.895Z,102796.81
2023-02-08T02:04:10.961Z,102800.91
2023-02-08T02:06:50.951Z,102683.09
2023-02-08T02:09:29.138Z,102800.38
2023-02-08T02:11:59.149Z,102811.34
2023-02-08T02:14:32.390Z,102786.47
2023-02-08T02:17:06.271Z,102797.72
2023-02-08T02:19:47.070Z,102797.00
2023-02-08T02:22:32.748Z,102801.44
2023-02-08T02:25:38.504Z,102795.28
2023-02-08T02:28:28.384Z,102798.88
2023-02-08T02:31:19.452Z,102797.19
2023-02-08T02:33:56.271Z,102802.00
2023-02-08T02:36:32.330Z,102803.59
2023-02-08T02:39:10.874Z,102799.22
2023-02-08T02:42:37.822Z,102793.09
2023-02-08T02:45:50.168Z,102786.88
2023-02-08T02:48:32.981Z,102785.69
2023-02-08T02:51:12.439Z,102789.97
2023-02-08T02:54:04.455Z,102773.59
2023-02-08T02:56:40.122Z,102789.06
2023-02-08T02:59:14.036Z,102791.12
2023-02-08T03:01:49.317Z,102795.87
2023-02-08T03:04:39.627Z,102800.03
2023-02-08T03:07:58.876Z,102802.38
2023-02-08T03:10:34.278Z,102814.38
2023-02-08T03:13:20.215Z,102819.47
2023-02-08T03:16:00.380Z,102788.63
2023-02-08T03:18:47.345Z,102817.53
2023-02-08T03:21:35.707Z,102826.69
2023-02-08T03:24:31.092Z,102811.22
2023-02-08T03:27:06.841Z,102797.34
2023-02-08T03:29:48.369Z,102830.56
2023-02-08T03:32:39.060Z,102821.97
2023-02-08T03:35:29.105Z,102732.53
2023-02-08T03:38:05.672Z,102819.31
2023-02-08T03:40:42.459Z,102819.03
2023-02-08T03:43:19.030Z,102750.00
2023-02-08T03:45:55.474Z,102741.44
2023-02-08T03:48:28.354Z,102735.37
2023-02-08T03:51:02.443Z,102814.44
2023-02-08T03:53:38.502Z,102827.41
2023-02-08T03:56:21.014Z,102826.22
2023-02-08T03:58:59.911Z,102828.88
2023-02-08T04:01:42.578Z,102834.00
2023-02-08T04:04:18.974Z,102830.78
2023-02-08T04:06:50.433Z,102800.50
2023-02-08T04:09:22.247Z,102827.75
2023-02-08T04:11:50.664Z,102833.16
2023-02-08T04:14:22.500Z,102830.22
2023-02-08T04:16:55.690Z,102828.62
2023-02-08T04:19:27.074Z,102777.19
2023-02-08T04:21:55.887Z,102826.56
2023-02-08T04:24:27.935Z,102825.63
2023-02-08T04:26:56.255Z,102822.31
2023-02-08T04:29:28.134Z,102813.00
2023-02-08T04:31:56.166Z,102814.50
2023-02-08T04:34:27.611Z,102816.75
2023-02-08T04:36:55.956Z,102821.81
2023-02-08T04:39:28.084Z,102803.72
2023-02-08T04:41:56.239Z,102814.81
2023-02-08T04:44:28.269Z,102801.03
2023-02-08T04:47:02.152Z,102806.16
2023-02-08T04:49:30.890Z,102790.72
2023-02-08T04:52:04.434Z,102823.19
2023-02-08T04:54:35.153Z,102808.38
2023-02-08T04:57:10.909Z,102808.03
2023-02-08T04:59:42.147Z,102804.44
2023-02-08T05:02:18.042Z,102811.84
2023-02-08T05:04:51.035Z,102816.28
2023-02-08T05:07:23.914Z,102825.59
2023-02-08T05:09:56.573Z,102821.22
2023-02-08T05:12:24.753Z,102828.94
2023-02-08T05:17:50.794Z,102812.66
2023-02-08T05:20:24.269Z,102825.38
2023-02-08T05:22:56.589Z,102826.19
2023-02-08T05:25:30.885Z,102834.75
2023-02-08T05:28:01.295Z,102839.13
2023-02-08T05:30:35.605Z,102824.78
2023-02-08T05:33:03.834Z,102845.22
2023-02-08T05:35:36.745Z,102848.56
2023-02-08T05:38:10.787Z,102781.44
2023-02-08T05:40:44.641Z,102846.75
2023-02-08T05:43:12.941Z,102840.97
2023-02-08T05:45:45.742Z,102844.19
2023-02-08T05:48:14.602Z,102817.19
2023-02-08T05:50:46.851Z,102844.94
2023-02-08T05:53:22.448Z,102827.84
2023-02-08T05:55:57.988Z,102837.16
2023-02-08T05:58:30.478Z,102831.94
2023-02-08T06:01:23.748Z,102832.69
2023-02-08T06:09:49.447Z,102686.12
2023-02-08T06:12:30.730Z,102839.31
2023-02-08T06:15:08.483Z,102754.63
2023-02-08T06:18:00.009Z,102767.50
2023-02-08T06:20:37.171Z,102853.72
2023-02-08T06:23:10.442Z,102820.69
2023-02-08T06:26:01.365Z,102757.84
2023-02-08T06:28:48.841Z,102866.00
2023-02-08T06:34:49.127Z,102797.13
2023-02-08T06:37:52.775Z,102830.09
2023-02-08T06:40:59.022Z,102769.56
2023-02-08T06:43:31.997Z,102883.03
2023-02-08T06:46:17.540Z,102854.59
2023-02-08T06:49:13.128Z,102873.75
2023-02-08T06:51:46.028Z,102889.12
2023-02-08T06:54:29.042Z,102859.75
2023-02-08T06:57:15.514Z,102869.56
2023-02-08T07:00:11.673Z,102830.16
2023-02-08T07:02:49.951Z,102813.47
2023-02-08T07:05:22.755Z,102891.78
2023-02-08T07:11:49.525Z,102895.44
2023-02-08T07:45:04.695Z,102911.00
2023-02-08T07:47:35.791Z,102918.09
2023-02-08T07:50:08.082Z,102927.81
2023-02-08T07:52:46.362Z,102902.34
2023-02-08T07:55:32.119Z,102906.41
2023-02-08T07:58:24.670Z,102895.97
2023-02-08T08:00:54.104Z,102848.81
2023-02-08T08:04:15.340Z,102836.72
2023-02-08T08:22:17.416Z,102883.31
2023-02-08T08:53:30.702Z,102955.22
2023-02-08T08:56:02.970Z,102962.41
2023-02-08T08:58:31.453Z,102958.78
2023-02-08T09:01:01.001Z,102968.84
2023-02-08T09:03:32.132Z,102959.88
2023-02-08T09:06:02.176Z,102956.94
2023-02-08T09:08:32.686Z,102954.41
2023-02-08T09:11:07.182Z,102952.09
2023-02-08T09:13:39.615Z,102955.78
2023-02-08T09:16:18.955Z,102952.78
2023-02-08T09:18:47.288Z,102948.31
2023-02-08T09:21:21.921Z,102958.94
2023-02-08T09:23:53.669Z,102957.59
2023-02-08T09:26:25.345Z,102971.97
2023-02-08T09:28:56.419Z,102960.22
2023-02-08T09:31:30.413Z,102962.88
2023-02-08T09:34:01.013Z,102970.59
2023-02-08T09:36:39.920Z,102969.97
2023-02-08T09:39:22.520Z,102973.72
2023-02-08T09:45:10.826Z,102972.66
2023-02-08T09:50:58.596Z,102978.47
2023-02-08T09:53:34.461Z,102978.47
2023-02-08T09:56:07.112Z,102984.03
2023-02-08T09:58:46.170Z,102987.97
2023-02-08T10:01:23.177Z,102985.03
2023-02-08T10:04:40.704Z,102992.56
2023-02-08T10:07:11.326Z,102988.03
2023-02-08T10:09:39.721Z,102979.34
2023-02-08T10:12:16.167Z,102973.19
2023-02-08T10:37:39.912Z,102962.78
2023-02-08T10:40:25.730Z,102968.34
2023-02-08T10:43:31.442Z,102962.28
2023-02-08T10:46:21.776Z,102967.81
2023-02-08T10:52:11.112Z,102961.06
2023-02-08T10:54:41.013Z,102958.37
2023-02-08T10:57:31.751Z,102959.88
2023-02-08T11:02:43.713Z,102962.56
2023-02-08T11:05:19.336Z,102952.69
2023-02-08T11:07:49.665Z,102964.88
2023-02-08T11:29:27.424Z,102961.03
2023-02-08T11:32:18.947Z,102964.00
2023-02-08T11:34:56.400Z,102961.28
2023-02-08T11:37:29.264Z,102955.16
2023-02-08T11:40:04.019Z,102942.44
2023-02-08T11:42:44.981Z,102969.37
2023-02-08T11:45:27.797Z,102966.00
2023-02-08T11:48:09.552Z,102958.44
2023-02-08T11:50:41.517Z,102961.16
2023-02-08T11:53:47.026Z,102958.00
2023-02-08T11:56:36.940Z,102949.84
2023-02-08T11:59:29.086Z,102957.19
2023-02-08T12:01:58.036Z,102954.38
2023-02-08T12:04:27.739Z,102950.28
2023-02-08T12:07:26.555Z,102952.13
2023-02-08T12:19:53.158Z,102944.44
2023-02-08T12:22:49.917Z,102941.38
2023-02-08T12:25:46.444Z,102939.13
2023-02-08T12:28:47.057Z,102943.28
2023-02-08T12:31:28.834Z,102934.22
2023-02-08T12:34:08.639Z,102930.81
2023-02-08T12:36:48.368Z,102929.66
2023-02-08T12:43:06.406Z,102933.84
2023-02-08T12:46:00.307Z,102922.75
2023-02-08T13:01:34.077Z,102917.53
2023-02-08T13:04:30.201Z,102917.53
2023-02-08T13:07:43.513Z,102921.13
2023-02-08T13:19:59.680Z,102922.41
2023-02-08T13:22:45.860Z,102920.19
2023-02-08T13:25:34.550Z,102923.50
2023-02-08T13:28:11.803Z,102924.13
2023-02-08T13:31:02.307Z,102917.56
2023-02-08T13:34:00.947Z,102921.81
2023-02-08T13:36:34.649Z,102930.50
2023-02-08T13:39:46.880Z,102889.50
2023-02-08T13:42:38.945Z,102923.66
2023-02-08T13:45:41.556Z,102930.19
2023-02-08T13:48:18.097Z,102925.72
2023-02-08T13:50:52.190Z,102930.53
2023-02-08T13:53:44.654Z,102933.00
2023-02-08T13:56:20.688Z,102885.34
2023-02-08T13:58:53.429Z,102920.88
2023-02-08T14:01:47.209Z,102939.19
2023-02-08T14:04:40.250Z,102931.63
2023-02-08T14:10:39.208Z,102929.84
2023-02-08T14:17:14.250Z,102931.53
2023-02-08T14:20:12.644Z,102942.53
2023-02-08T14:23:25.233Z,102932.28
2023-02-08T14:26:12.937Z,102938.66
2023-02-08T14:28:56.490Z,102932.56
2023-02-08T14:31:49.377Z,102934.25
2023-02-08T14:34:43.775Z,102935.41
2023-02-08T14:37:47.483Z,102902.19
2023-02-08T14:40:48.288Z,102938.72
2023-02-08T14:43:43.048Z,102935.19
2023-02-08T14:52:44.997Z,102922.84
2023-02-08T15:05:28.175Z,102923.69
2023-02-08T15:08:11.350Z,102925.88
2023-02-08T15:10:45.381Z,102918.78
2023-02-08T15:13:31.646Z,102918.00
2023-02-08T15:16:04.209Z,102909.84
2023-02-08T15:19:04.967Z,102919.66
2023-02-08T15:21:50.134Z,102921.41
2023-02-08T15:24:31.262Z,102918.41
2023-02-08T15:27:25.353Z,102925.69
2023-02-08T15:42:38.056Z,102937.38
2023-02-08T16:07:19.704Z,102937.47
2023-02-08T16:10:01.548Z,102941.25
2023-02-08T16:12:48.226Z,102942.91
2023-02-08T16:16:08.859Z,102949.47
2023-02-08T16:19:10.517Z,102947.16
2023-02-08T16:22:30.069Z,102950.53
2023-02-08T16:25:34.262Z,102958.72
2023-02-08T16:28:42.377Z,102959.63
2023-02-08T16:31:23.574Z,102957.47
2023-02-08T16:50:29.787Z,102972.84
2023-02-08T16:53:04.626Z,102972.84
2023-02-08T16:55:36.525Z,102978.72
2023-02-08T16:58:04.921Z,102974.84
2023-02-08T17:00:35.434Z,102974.91
2023-02-08T17:03:03.858Z,102968.44
2023-02-08T17:05:36.870Z,102958.47
2023-02-08T17:31:38.465Z,102977.28
2023-02-08T17:34:08.032Z,102979.47
2023-02-08T17:36:37.138Z,102949.31
2023-02-08T17:39:07.538Z,102981.59
2023-02-08T17:41:36.104Z,102980.59
2023-02-08T17:44:04.442Z,102984.94
2023-02-08T17:46:33.568Z,102984.25
2023-02-08T17:49:03.756Z,102973.31
2023-02-08T17:54:31.053Z,102985.72
2023-02-08T18:09:21.104Z,102992.13
2023-02-08T18:11:51.589Z,102992.13
2023-02-08T18:14:22.662Z,102996.31
2023-02-08T18:16:50.876Z,102987.88
2023-02-08T18:19:19.831Z,103001.75
2023-02-08T18:21:47.866Z,103007.13
2023-02-08T18:24:17.018Z,103005.50
2023-02-08T18:45:19.580Z,103013.34
2023-02-08T18:47:48.799Z,103013.34
2023-02-08T18:50:17.523Z,103022.66
2023-02-08T18:52:48.537Z,103022.69
2023-02-08T18:55:17.513Z,103030.81
2023-02-08T18:57:47.895Z,103028.41
2023-02-08T19:00:19.716Z,103024.16
2023-02-08T19:02:51.922Z,103026.03
2023-02-08T19:08:02.869Z,103026.91
2023-02-08T19:25:40.111Z,103017.63
2023-02-08T19:28:09.527Z,103022.97
2023-02-08T19:30:38.497Z,103014.69
2023-02-08T19:33:06.673Z,103023.22
2023-02-08T19:35:38.257Z,103027.47
2023-02-08T19:38:06.438Z,103024.00
2023-02-08T19:40:35.560Z,103025.50
2023-02-08T19:43:13.625Z,103010.16
2023-02-08T20:00:30.142Z,103016.28
2023-02-08T20:02:58.994Z,103016.28
2023-02-08T20:05:27.949Z,103013.28
2023-02-08T20:07:56.876Z,103021.94
2023-02-08T20:10:25.848Z,103024.62
2023-02-08T20:12:55.802Z,103010.88
2023-02-08T20:15:24.835Z,103017.13
2023-02-08T20:36:32.043Z,103026.53
2023-02-08T20:39:01.680Z,103026.53
2023-02-08T20:41:33.138Z,103028.53
2023-02-08T20:44:02.693Z,103032.81
2023-02-08T20:46:34.761Z,103040.72
2023-02-08T20:49:10.093Z,103036.28
2023-02-08T20:51:38.792Z,103038.34
2023-02-08T20:54:21.724Z,103037.34
2023-02-08T21:09:21.701Z,103025.03
2023-02-08T21:11:51.426Z,103025.03
2023-02-08T21:14:23.486Z,103036.72
2023-02-08T21:16:56.102Z,103029.09
2023-02-08T21:19:26.497Z,103008.97
2023-02-08T21:21:58.824Z,103031.31
2023-02-08T21:24:28.911Z,103040.59
2023-02-08T21:47:41.448Z,103017.25
2023-02-08T21:50:29.360Z,103017.25
2023-02-08T21:53:16.416Z,103019.00
2023-02-08T21:55:47.929Z,103010.47
2023-02-08T21:58:16.642Z,103020.00
2023-02-08T22:00:50.853Z,103020.56
2023-02-08T22:03:19.634Z,103017.22
2023-02-08T22:06:14.688Z,103018.81
2023-02-08T22:24:49.288Z,103015.53
2023-02-08T22:27:20.015Z,103015.53
2023-02-08T22:29:49.241Z,103026.66
2023-02-08T22:32:20.812Z,103024.25
2023-02-08T22:34:49.556Z,103017.31
2023-02-08T22:37:18.408Z,103018.88
2023-02-08T22:39:46.866Z,103030.13
2023-02-08T22:42:18.561Z,103014.75
2023-02-08T22:44:47.286Z,103026.69
2023-02-08T22:47:18.816Z,103033.78
2023-02-08T23:07:39.367Z,103015.47
2023-02-08T23:10:09.844Z,103015.47
2023-02-08T23:12:40.320Z,103013.13
2023-02-08T23:15:11.073Z,103016.22
2023-02-08T23:17:39.141Z,103000.09
2023-02-08T23:20:18.074Z,103010.41
2023-02-08T23:22:48.145Z,103007.75
2023-02-08T23:25:16.619Z,102982.25
2023-02-08T23:27:46.830Z,103013.09
2023-02-08T23:30:16.460Z,103012.41
2023-02-08T23:59:05.410Z,102999.44
